createdAt,value
2022-08-09T00:01:57.353Z,100.00
2022-08-09T00:04:34.513Z,100.00
2022-08-09T00:07:10.653Z,100.00
2022-08-09T00:09:40.644Z,100.00
2022-08-09T00:12:15.601Z,100.00
2022-08-09T00:14:54.500Z,100.00
2022-08-09T00:18:05.056Z,100.00
2022-08-09T00:20:16.938Z,100.00
2022-08-09T00:22:47.303Z,100.00
2022-08-09T00:25:23.273Z,100.00
2022-08-09T00:27:55.910Z,100.00
2022-08-09T00:30:27.055Z,100.00
2022-08-09T00:32:56.549Z,100.00
2022-08-09T00:35:29.647Z,100.00
2022-08-09T00:38:12.730Z,100.00
2022-08-09T00:40:52.486Z,100.00
2022-08-09T00:44:11.766Z,100.00
2022-08-09T00:46:14.596Z,100.00
2022-08-09T00:49:03.886Z,100.00
2022-08-09T00:51:33.847Z,100.00
2022-08-09T00:54:03.649Z,100.00
2022-08-09T00:56:33.203Z,100.00
2022-08-09T00:59:02.824Z,100.00
2022-08-09T01:01:44.931Z,100.00
2022-08-09T01:04:20.174Z,100.00
2022-08-09T01:07:17.576Z,100.00
2022-08-09T01:10:07.751Z,100.00
2022-08-09T01:12:48.208Z,100.00
2022-08-09T01:15:24.000Z,100.00
2022-08-09T01:18:08.523Z,100.00
2022-08-09T01:20:43.891Z,100.00
2022-08-09T01:24:01.699Z,100.00
2022-08-09T01:26:47.203Z,100.00
2022-08-09T01:29:41.206Z,100.00
2022-08-09T01:32:31.361Z,100.00
2022-08-09T01:35:17.918Z,100.00
2022-08-09T01:38:08.329Z,100.00
2022-08-09T01:40:45.187Z,100.00
2022-08-09T01:43:24.134Z,100.00
2022-08-09T01:45:58.127Z,100.00
2022-08-09T01:48:31.568Z,100.00
2022-08-09T01:51:02.594Z,100.00
2022-08-09T01:53:41.664Z,100.00
2022-08-09T01:56:13.362Z,100.00
2022-08-09T01:58:48.983Z,100.00
2022-08-09T02:01:21.490Z,100.00
2022-08-09T02:04:12.424Z,100.00
2022-08-09T02:06:58.705Z,100.00
2022-08-09T02:09:42.084Z,100.00
2022-08-09T02:12:21.120Z,100.00
2022-08-09T02:14:55.987Z,100.00
2022-08-09T02:18:00.511Z,100.00
2022-08-09T02:20:26.407Z,100.00
2022-08-09T02:23:13.158Z,100.00
2022-08-09T02:25:49.685Z,100.00
2022-08-09T02:28:26.517Z,100.00
2022-08-09T02:31:07.642Z,100.00
2022-08-09T02:34:07.353Z,100.00
2022-08-09T02:36:42.008Z,100.00
2022-08-09T02:39:33.271Z,100.00
2022-08-09T02:42:07.282Z,100.00
2022-08-09T02:44:43.019Z,100.00
2022-08-09T02:47:15.325Z,100.00
2022-08-09T02:50:02.350Z,100.00
2022-08-09T02:52:41.451Z,100.00
2022-08-09T02:55:20.849Z,100.00
2022-08-09T02:58:00.320Z,100.00
2022-08-09T03:00:58.175Z,100.00
2022-08-09T03:04:13.326Z,100.00
2022-08-09T03:06:21.430Z,100.00
2022-08-09T03:08:54.283Z,100.00
2022-08-09T03:11:30.066Z,100.00
2022-08-09T03:14:15.949Z,100.00
2022-08-09T03:16:48.197Z,100.00
2022-08-09T03:19:52.660Z,100.00
2022-08-09T03:22:25.215Z,100.00
2022-08-09T03:25:21.754Z,100.00
2022-08-09T03:27:55.580Z,100.00
2022-08-09T03:30:33.102Z,100.00
2022-08-09T03:33:17.928Z,100.00
2022-08-09T03:36:13.893Z,100.00
2022-08-09T03:38:45.647Z,100.00
2022-08-09T03:41:18.372Z,100.00
2022-08-09T03:44:04.019Z,100.00
2022-08-09T03:46:39.101Z,100.00
2022-08-09T03:49:09.683Z,100.00
2022-08-09T03:51:56.120Z,100.00
2022-08-09T03:54:34.716Z,100.00
2022-08-09T03:57:20.066Z,100.00
2022-08-09T04:00:00.518Z,100.00
2022-08-09T04:02:34.216Z,100.00
2022-08-09T04:05:06.319Z,100.00
2022-08-09T04:07:53.320Z,100.00
2022-08-09T04:10:28.891Z,100.00
2022-08-09T04:13:09.515Z,100.00
2022-08-09T04:16:19.672Z,100.00
2022-08-09T04:18:34.050Z,100.00
2022-08-09T04:21:03.949Z,100.00
2022-08-09T04:23:33.361Z,100.00
2022-08-09T04:26:02.903Z,100.00
2022-08-09T04:28:36.140Z,100.00
2022-08-09T04:31:13.043Z,100.00
2022-08-09T04:33:51.930Z,100.00
2022-08-09T04:36:26.532Z,100.00
2022-08-09T04:38:57.197Z,100.00
2022-08-09T04:41:32.416Z,100.00
2022-08-09T04:44:10.969Z,100.00
2022-08-09T04:46:59.351Z,100.00
2022-08-09T04:49:52.515Z,100.00
2022-08-09T04:52:27.930Z,100.00
2022-08-09T04:55:01.422Z,100.00
2022-08-09T04:57:58.502Z,100.00
2022-08-09T05:00:22.332Z,100.00
2022-08-09T05:02:53.246Z,100.00
2022-08-09T05:05:32.096Z,100.00
2022-08-09T05:08:13.959Z,100.00
2022-08-09T05:10:44.961Z,100.00
2022-08-09T05:13:17.307Z,100.00
2022-08-09T05:15:52.382Z,100.00
2022-08-09T05:18:39.043Z,100.00
2022-08-09T05:21:23.187Z,100.00
2022-08-09T05:24:01.593Z,100.00
2022-08-09T05:26:36.371Z,100.00
2022-08-09T05:29:07.173Z,100.00
2022-08-09T05:31:56.761Z,100.00
2022-08-09T05:34:30.913Z,100.00
2022-08-09T05:37:11.454Z,100.00
2022-08-09T05:39:44.386Z,100.00
2022-08-09T05:42:21.429Z,100.00
2022-08-09T05:44:56.018Z,100.00
2022-08-09T05:47:30.182Z,100.00
2022-08-09T05:50:26.088Z,100.00
2022-08-09T05:52:53.999Z,100.00
2022-08-09T05:55:25.011Z,100.00
2022-08-09T05:57:57.350Z,100.00
2022-08-09T06:00:32.890Z,100.00
2022-08-09T06:03:10.689Z,100.00
2022-08-09T06:05:58.239Z,100.00
2022-08-09T06:08:32.135Z,100.00
2022-08-09T06:11:01.813Z,100.00
2022-08-09T06:13:47.497Z,100.00
2022-08-09T06:16:17.933Z,100.00
2022-08-09T06:18:47.307Z,100.00
2022-08-09T06:21:16.689Z,100.00
2022-08-09T06:23:57.936Z,100.00
2022-08-09T06:26:31.754Z,100.00
2022-08-09T06:29:05.147Z,100.00
2022-08-09T06:31:39.814Z,100.00
2022-08-09T06:34:26.163Z,100.00
2022-08-09T06:36:59.149Z,100.00
2022-08-09T06:39:48.470Z,100.00
2022-08-09T06:42:20.240Z,100.00
2022-08-09T06:44:54.739Z,100.00
2022-08-09T06:47:25.030Z,100.00
2022-08-09T06:50:15.703Z,100.00
2022-08-09T06:52:49.104Z,100.00
2022-08-09T06:55:22.892Z,100.00
2022-08-09T06:58:03.117Z,100.00
2022-08-09T07:00:50.918Z,100.00
2022-08-09T07:03:29.041Z,100.00
2022-08-09T07:06:03.771Z,100.00
2022-08-09T07:08:37.184Z,100.00
2022-08-09T07:11:07.475Z,100.00
2022-08-09T07:13:45.465Z,100.00
2022-08-09T07:16:43.973Z,100.00
2022-08-09T07:19:18.662Z,100.00
2022-08-09T07:21:57.355Z,100.00
2022-08-09T07:24:32.836Z,100.00
2022-08-09T07:27:26.970Z,100.00
2022-08-09T07:30:01.378Z,100.00
2022-08-09T07:32:33.624Z,100.00
2022-08-09T07:35:08.118Z,100.00
2022-08-09T07:37:43.309Z,100.00
2022-08-09T07:40:20.510Z,100.00
2022-08-09T07:42:59.283Z,100.00
2022-08-09T07:45:39.179Z,100.00
2022-08-09T07:48:25.543Z,100.00
2022-08-09T07:51:10.371Z,100.00
2022-08-09T07:54:07.781Z,100.00
2022-08-09T07:56:48.874Z,100.00
2022-08-09T07:59:25.612Z,100.00
2022-08-09T08:02:05.469Z,100.00
2022-08-09T08:04:36.566Z,100.00
2022-08-09T08:07:15.347Z,100.00
2022-08-09T08:10:05.867Z,100.00
2022-08-09T08:12:42.862Z,100.00
2022-08-09T08:15:16.505Z,100.00
2022-08-09T08:17:54.780Z,100.00
2022-08-09T08:20:32.554Z,100.00
2022-08-09T08:23:16.360Z,100.00
2022-08-09T08:26:06.184Z,99.96
2022-08-09T08:28:37.537Z,100.00
2022-08-09T08:31:13.970Z,100.00
2022-08-09T08:33:52.653Z,100.00
2022-08-09T08:36:29.261Z,100.00
2022-08-09T08:39:00.811Z,99.49
2022-08-09T08:41:50.997Z,97.17
2022-08-09T08:44:27.036Z,98.37
2022-08-09T08:47:05.202Z,97.53
2022-08-09T08:49:48.672Z,97.56
2022-08-09T08:52:58.521Z,98.12
2022-08-09T08:55:27.848Z,95.00
2022-08-09T08:57:58.328Z,95.64
2022-08-09T09:00:34.665Z,95.69
2022-08-09T09:03:11.385Z,93.82
2022-08-09T09:05:58.802Z,91.99
2022-08-09T09:08:42.784Z,91.30
2022-08-09T09:11:19.627Z,89.35
2022-08-09T09:13:55.107Z,89.74
2022-08-09T09:16:30.432Z,90.58
2022-08-09T09:19:37.443Z,87.59
2022-08-09T09:22:07.469Z,84.56
2022-08-09T09:24:43.545Z,89.55
2022-08-09T09:28:02.804Z,83.94
2022-08-09T09:30:39.897Z,82.65
2022-08-09T09:33:15.367Z,79.96
2022-08-09T09:36:03.976Z,78.05
2022-08-09T09:38:50.371Z,80.07
2022-08-09T09:41:26.393Z,80.59
2022-08-09T09:44:12.222Z,81.03
2022-08-09T09:46:52.043Z,74.53
2022-08-09T09:49:50.141Z,75.31
2022-08-09T09:52:16.657Z,72.97
2022-08-09T09:55:16.276Z,76.38
2022-08-09T09:58:17.011Z,72.21
2022-08-09T10:01:00.555Z,74.13
2022-08-09T10:03:57.114Z,71.29
2022-08-09T10:06:47.040Z,71.45
2022-08-09T10:09:22.544Z,71.10
2022-08-09T10:12:12.435Z,65.56
2022-08-09T10:14:51.944Z,68.57
2022-08-09T10:17:55.065Z,67.21
2022-08-09T10:20:27.555Z,65.96
2022-08-09T10:23:17.307Z,65.87
2022-08-09T10:26:07.256Z,65.47
2022-08-09T10:28:39.974Z,64.77
2022-08-09T10:34:18.720Z,61.53
2022-08-09T10:36:56.798Z,62.22
2022-08-09T10:39:28.728Z,63.39
2022-08-09T10:41:58.534Z,62.05
2022-08-09T10:44:32.020Z,64.13
2022-08-09T10:48:16.387Z,65.06
2022-08-09T10:51:13.652Z,65.60
2022-08-09T10:54:13.115Z,64.92
2022-08-09T10:56:45.010Z,63.17
2022-08-09T10:59:55.393Z,63.34
2022-08-09T11:03:27.582Z,63.38
2022-08-09T11:05:31.302Z,62.48
2022-08-09T11:08:47.988Z,61.38
2022-08-09T11:11:23.022Z,65.37
2022-08-09T11:14:31.853Z,64.90
2022-08-09T11:17:01.487Z,61.79
2022-08-09T11:20:10.126Z,63.12
2022-08-09T11:22:56.625Z,60.21
2022-08-09T11:25:47.650Z,62.85
2022-08-09T11:28:55.750Z,60.84
2022-08-09T11:31:48.786Z,60.88
2022-08-09T11:34:31.055Z,61.26
2022-08-09T11:37:02.407Z,63.58
2022-08-09T11:40:03.049Z,61.61
2022-08-09T11:42:51.903Z,62.42
2022-08-09T11:45:41.983Z,60.55
2022-08-09T11:48:26.604Z,60.50
2022-08-09T11:52:36.722Z,60.15
2022-08-09T11:53:59.408Z,60.82
2022-08-09T11:56:34.427Z,62.16
2022-08-09T11:59:30.693Z,62.27
2022-08-09T12:02:21.232Z,60.97
2022-08-09T12:04:58.906Z,59.87
2022-08-09T12:07:41.314Z,58.82
2022-08-09T12:10:39.274Z,59.01
2022-08-09T12:14:10.542Z,60.25
2022-08-09T12:15:53.413Z,59.93
2022-08-09T12:18:29.848Z,58.66
2022-08-09T12:21:02.554Z,58.84
2022-08-09T12:24:00.403Z,57.26
2022-08-09T12:26:26.086Z,57.02
2022-08-09T12:29:29.687Z,56.17
2022-08-09T12:31:59.263Z,57.96
2022-08-09T12:34:44.364Z,55.78
2022-08-09T12:37:23.992Z,55.68
2022-08-09T12:40:03.630Z,55.61
2022-08-09T12:42:35.879Z,56.66
2022-08-09T12:45:33.387Z,53.23
2022-08-09T12:47:58.276Z,54.66
2022-08-09T12:50:28.642Z,55.08
2022-08-09T12:53:09.525Z,55.73
2022-08-09T12:56:14.417Z,56.40
2022-08-09T12:58:44.049Z,53.47
2022-08-09T13:01:32.300Z,54.46
2022-08-09T13:04:21.719Z,53.18
2022-08-09T13:07:13.716Z,50.41
2022-08-09T13:09:52.782Z,50.68
2022-08-09T13:12:25.936Z,51.87
2022-08-09T13:15:08.604Z,49.77
2022-08-09T13:18:02.435Z,51.42
2022-08-09T13:21:03.890Z,52.47
2022-08-09T13:24:06.851Z,54.00
2022-08-09T13:26:42.638Z,51.68
2022-08-09T13:29:15.248Z,49.02
2022-08-09T13:32:19.997Z,49.69
2022-08-09T13:34:48.416Z,48.91
2022-08-09T13:37:50.911Z,48.32
2022-08-09T13:41:51.142Z,47.73
2022-08-09T13:43:05.011Z,47.95
2022-08-09T13:46:43.249Z,47.07
2022-08-09T13:48:24.704Z,48.00
2022-08-09T13:50:54.220Z,47.70
2022-08-09T13:53:41.353Z,48.77
2022-08-09T13:56:13.903Z,48.68
2022-08-09T13:58:43.543Z,49.25
2022-08-09T14:01:55.733Z,48.17
2022-08-09T14:04:11.419Z,48.63
2022-08-09T14:06:43.846Z,48.00
2022-08-09T14:09:16.258Z,48.41
2022-08-09T14:11:47.661Z,49.53
2022-08-09T14:14:26.150Z,48.06
2022-08-09T14:16:57.822Z,47.86
2022-08-09T14:19:30.365Z,48.06
2022-08-09T14:22:03.366Z,46.40
2022-08-09T14:24:33.731Z,45.52
2022-08-09T14:27:03.641Z,46.64
2022-08-09T14:30:19.322Z,46.11
2022-08-09T14:32:39.300Z,46.51
2022-08-09T14:35:12.650Z,45.73
2022-08-09T14:38:03.032Z,45.60
2022-08-09T14:41:00.634Z,46.03
2022-08-09T14:43:21.785Z,45.17
2022-08-09T14:46:54.918Z,44.62
2022-08-09T14:48:42.916Z,44.28
2022-08-09T14:51:14.861Z,44.00
2022-08-09T14:53:48.715Z,45.51
2022-08-09T14:56:22.380Z,45.45
2022-08-09T14:58:57.865Z,46.09
2022-08-09T15:01:27.393Z,48.28
2022-08-09T15:03:56.786Z,46.20
2022-08-09T15:06:28.487Z,45.88
2022-08-09T15:08:59.474Z,44.91
2022-08-09T15:11:29.178Z,45.60
2022-08-09T15:14:04.779Z,45.20
2022-08-09T15:16:43.061Z,46.47
2022-08-09T15:19:17.983Z,46.28
2022-08-09T15:21:58.871Z,47.11
2022-08-09T15:24:31.507Z,47.17
2022-08-09T15:27:00.851Z,47.49
2022-08-09T15:30:58.730Z,46.88
2022-08-09T15:32:39.013Z,46.62
2022-08-09T15:35:18.334Z,46.91
2022-08-09T15:38:11.624Z,45.99
2022-08-09T15:40:44.225Z,46.04
2022-08-09T15:43:17.106Z,45.67
2022-08-09T15:45:51.864Z,45.99
2022-08-09T15:48:36.424Z,46.23
2022-08-09T15:51:30.242Z,47.27
2022-08-09T15:54:05.277Z,46.92
2022-08-09T15:56:41.579Z,46.72
2022-08-09T15:59:13.935Z,47.80
2022-08-09T16:01:43.232Z,47.43
2022-08-09T16:04:13.739Z,48.27
2022-08-09T16:06:44.820Z,48.14
2022-08-09T16:09:32.725Z,48.18
2022-08-09T16:12:11.275Z,46.48
2022-08-09T16:14:41.025Z,46.98
2022-08-09T16:17:11.987Z,46.54
2022-08-09T16:19:49.326Z,47.29
2022-08-09T16:22:33.255Z,47.76
2022-08-09T16:25:04.091Z,47.49
2022-08-09T16:27:36.169Z,47.50
2022-08-09T16:30:09.529Z,47.62
2022-08-09T16:32:57.245Z,47.25
2022-08-09T16:35:55.961Z,47.33
2022-08-09T16:38:18.000Z,47.22
2022-08-09T16:40:48.058Z,47.65
2022-08-09T16:43:18.103Z,48.16
2022-08-09T16:45:48.157Z,47.79
2022-08-09T16:48:39.025Z,47.75
2022-08-09T16:51:14.337Z,48.20
2022-08-09T16:54:22.450Z,48.48
2022-08-09T16:56:37.790Z,48.73
2022-08-09T16:59:18.716Z,48.54
2022-08-09T17:01:51.317Z,47.68
2022-08-09T17:04:25.497Z,47.46
2022-08-09T17:08:43.600Z,48.07
2022-08-09T17:09:47.499Z,47.54
2022-08-09T17:12:19.546Z,47.64
2022-08-09T17:14:54.980Z,47.27
2022-08-09T17:17:27.923Z,46.61
2022-08-09T17:20:28.604Z,47.21
2022-08-09T17:22:52.411Z,47.66
2022-08-09T17:25:23.638Z,47.33
2022-08-09T17:27:55.201Z,47.46
2022-08-09T17:30:30.637Z,47.13
2022-08-09T17:33:05.136Z,47.08
2022-08-09T17:35:51.514Z,47.37
2022-08-09T17:38:30.967Z,48.15
2022-08-09T17:41:04.664Z,47.82
2022-08-09T17:43:37.367Z,47.99
2022-08-09T17:46:10.683Z,47.65
2022-08-09T17:48:51.895Z,47.76
2022-08-09T17:51:23.202Z,48.70
2022-08-09T17:53:54.848Z,49.43
2022-08-09T17:56:35.416Z,49.34
2022-08-09T17:59:11.494Z,50.27
2022-08-09T18:02:07.645Z,50.25
2022-08-09T18:04:32.092Z,50.70
2022-08-09T18:07:04.706Z,50.72
2022-08-09T18:09:40.465Z,51.51
2022-08-09T18:12:20.346Z,51.54
2022-08-09T18:14:57.034Z,51.86
2022-08-09T18:18:01.730Z,52.48
2022-08-09T18:20:55.190Z,53.29
2022-08-09T18:23:08.247Z,52.99
2022-08-09T18:25:57.987Z,53.54
2022-08-09T18:30:42.689Z,54.11
2022-08-09T18:31:32.291Z,54.18
2022-08-09T18:34:08.901Z,55.01
2022-08-09T18:36:38.374Z,55.18
2022-08-09T18:39:11.158Z,54.88
2022-08-09T18:41:53.197Z,55.79
2022-08-09T18:44:25.778Z,56.40
2022-08-09T18:47:08.251Z,56.12
2022-08-09T18:49:46.545Z,56.71
2022-08-09T18:52:18.750Z,57.38
2022-08-09T18:54:57.847Z,57.80
2022-08-09T18:57:42.804Z,57.25
2022-08-09T19:00:20.068Z,57.32
2022-08-09T19:02:54.024Z,57.54
2022-08-09T19:05:41.598Z,58.62
2022-08-09T19:08:19.588Z,58.14
2022-08-09T19:10:50.749Z,58.81
2022-08-09T19:13:38.367Z,59.00
2022-08-09T19:16:12.895Z,58.88
2022-08-09T19:18:45.360Z,59.24
2022-08-09T19:21:15.177Z,59.72
2022-08-09T19:24:35.416Z,60.03
2022-08-09T19:26:38.463Z,61.05
2022-08-09T19:29:17.980Z,60.89
2022-08-09T19:31:51.693Z,61.04
2022-08-09T19:34:24.742Z,61.63
2022-08-09T19:36:57.706Z,62.60
2022-08-09T19:39:29.087Z,62.46
2022-08-09T19:42:19.678Z,63.28
2022-08-09T19:44:53.540Z,63.42
2022-08-09T19:47:27.002Z,64.13
2022-08-09T19:50:09.374Z,65.35
2022-08-09T19:52:49.343Z,66.11
2022-08-09T19:55:30.804Z,66.96
2022-08-09T19:58:15.879Z,67.63
2022-08-09T20:00:47.281Z,69.16
2022-08-09T20:04:11.439Z,69.70
2022-08-09T20:06:22.173Z,69.95
2022-08-09T20:08:55.503Z,70.41
2022-08-09T20:11:27.057Z,71.63
2022-08-09T20:14:03.029Z,71.66
2022-08-09T20:16:50.158Z,71.83
2022-08-09T20:19:49.047Z,72.79
2022-08-09T20:22:13.924Z,73.65
2022-08-09T20:24:51.353Z,74.70
2022-08-09T20:27:23.169Z,74.78
2022-08-09T20:29:53.106Z,74.97
2022-08-09T20:32:30.617Z,75.31
2022-08-09T20:35:04.014Z,75.62
2022-08-09T20:37:37.870Z,76.40
2022-08-09T20:40:27.191Z,77.61
2022-08-09T20:43:00.350Z,77.30
2022-08-09T20:46:00.650Z,77.80
2022-08-09T20:48:41.936Z,78.21
2022-08-09T20:51:19.653Z,79.12
2022-08-09T20:53:49.519Z,79.54
2022-08-09T20:56:21.905Z,80.34
2022-08-09T20:58:58.882Z,81.27
2022-08-09T21:01:50.622Z,81.99
2022-08-09T21:05:53.796Z,83.04
2022-08-09T21:07:16.936Z,83.28
2022-08-09T21:09:55.427Z,84.14
2022-08-09T21:15:23.826Z,85.46
2022-08-09T21:18:21.118Z,85.72
2022-08-09T21:20:54.562Z,86.22
2022-08-09T21:23:47.538Z,87.70
2022-08-09T21:26:16.076Z,88.05
2022-08-09T21:28:55.776Z,89.02
2022-08-09T21:31:49.226Z,89.73
2022-08-09T21:34:28.680Z,90.19
2022-08-09T21:36:58.952Z,90.99
2022-08-09T21:39:42.144Z,91.31
2022-08-09T21:42:13.050Z,92.21
2022-08-09T21:44:43.670Z,92.36
2022-08-09T21:47:18.273Z,93.31
2022-08-09T21:49:48.188Z,93.48
2022-08-09T21:52:20.930Z,94.76
2022-08-09T21:54:57.182Z,95.37
2022-08-09T21:57:59.619Z,96.03
2022-08-09T22:00:33.572Z,96.26
2022-08-09T22:03:19.684Z,96.90
2022-08-09T22:05:57.909Z,97.04
2022-08-09T22:08:28.300Z,97.57
2022-08-09T22:11:50.537Z,98.12
2022-08-09T22:13:48.299Z,98.40
2022-08-09T22:16:19.570Z,98.90
2022-08-09T22:18:54.005Z,100.00
2022-08-09T22:21:45.272Z,100.00
2022-08-09T22:24:24.092Z,100.00
2022-08-09T22:26:54.295Z,100.00
2022-08-09T22:29:32.251Z,100.00
2022-08-09T22:32:29.853Z,100.00
2022-08-09T22:35:02.619Z,100.00
2022-08-09T22:37:40.332Z,100.00
2022-08-09T22:40:20.000Z,100.00
2022-08-09T22:42:49.863Z,100.00
2022-08-09T22:48:12.379Z,100.00
2022-08-09T22:48:19.879Z,100.00
2022-08-09T22:50:58.059Z,100.00
2022-08-09T22:53:44.097Z,100.00
2022-08-09T22:56:33.376Z,100.00
2022-08-09T22:59:57.101Z,100.00
2022-08-09T23:01:55.335Z,100.00
2022-08-09T23:04:25.548Z,100.00
2022-08-09T23:07:11.115Z,100.00
2022-08-09T23:09:41.612Z,100.00
2022-08-09T23:12:11.068Z,100.00
2022-08-09T23:14:42.195Z,100.00
2022-08-09T23:17:13.086Z,100.00
2022-08-09T23:20:00.667Z,100.00
2022-08-09T23:22:31.755Z,100.00
2022-08-09T23:25:01.154Z,100.00
2022-08-09T23:27:30.546Z,100.00
2022-08-09T23:29:59.848Z,100.00
2022-08-09T23:32:31.997Z,100.00
2022-08-09T23:35:01.498Z,100.00
2022-08-09T23:37:30.783Z,100.00
2022-08-09T23:40:00.126Z,100.00
2022-08-09T23:42:31.049Z,100.00
2022-08-09T23:45:00.946Z,100.00
2022-08-09T23:47:30.234Z,100.00
2022-08-09T23:49:59.595Z,100.00
2022-08-09T23:52:28.911Z,100.00
2022-08-09T23:55:00.269Z,100.00
2022-08-09T23:57:29.755Z,100.00
